createdAt,value
2018-04-30T00:00:50.046Z,16.50
2018-04-30T00:03:17.565Z,16.40
2018-04-30T00:05:45.838Z,16.30
2018-04-30T00:08:14.133Z,16.20
2018-04-30T00:10:41.643Z,16.20
2018-04-30T00:13:09.174Z,16.20
2018-04-30T00:15:38.181Z,16.10
2018-04-30T00:18:05.705Z,16.10
2018-04-30T00:20:33.434Z,16.10
2018-04-30T00:23:00.957Z,16.00
2018-04-30T00:25:28.471Z,16.00
2018-04-30T00:27:56.001Z,16.00
2018-04-30T00:30:23.505Z,15.90
2018-04-30T00:32:51.022Z,15.90
2018-04-30T00:35:18.525Z,15.90
2018-04-30T00:37:46.059Z,15.80
2018-04-30T00:40:13.578Z,15.90
2018-04-30T00:42:41.111Z,15.80
2018-04-30T00:45:08.619Z,15.80
2018-04-30T00:47:36.155Z,15.80
2018-04-30T00:50:03.649Z,15.80
2018-04-30T00:52:31.166Z,15.70
2018-04-30T00:55:00.234Z,15.70
2018-04-30T00:57:27.762Z,15.60
2018-04-30T00:59:55.264Z,15.80
2018-04-30T01:02:22.797Z,15.70
2018-04-30T01:04:51.085Z,15.60
2018-04-30T01:07:19.390Z,15.60
2018-04-30T01:09:46.890Z,15.60
2018-04-30T01:12:19.206Z,15.60
2018-04-30T01:14:46.729Z,15.60
2018-04-30T01:17:14.256Z,15.60
2018-04-30T01:19:41.752Z,15.50
2018-04-30T01:22:10.120Z,15.50
2018-04-30T01:24:37.562Z,15.50
2018-04-30T01:27:05.071Z,15.50
2018-04-30T01:29:33.368Z,15.50
2018-04-30T01:32:01.636Z,15.50
2018-04-30T01:34:29.161Z,15.50
2018-04-30T01:36:56.722Z,15.50
2018-04-30T01:39:24.253Z,15.50
2018-04-30T01:41:52.533Z,15.50
2018-04-30T01:44:20.061Z,15.50
2018-04-30T01:46:47.565Z,15.60
2018-04-30T01:49:15.093Z,15.60
2018-04-30T01:51:42.592Z,15.60
2018-04-30T01:54:10.109Z,15.60
2018-04-30T01:56:38.386Z,15.60
2018-04-30T01:59:05.921Z,15.60
2018-04-30T02:01:33.416Z,15.50
2018-04-30T02:04:00.945Z,15.50
2018-04-30T02:06:28.450Z,15.50
2018-04-30T02:08:55.995Z,15.50
2018-04-30T02:11:23.509Z,15.40
2018-04-30T02:13:52.540Z,15.60
2018-04-30T02:16:20.819Z,15.60
2018-04-30T02:18:49.108Z,15.50
2018-04-30T02:21:16.627Z,15.50
2018-04-30T02:23:44.169Z,15.50
2018-04-30T02:26:11.676Z,15.40
2018-04-30T02:28:39.200Z,15.40
2018-04-30T02:31:07.473Z,15.30
2018-04-30T02:33:35.086Z,15.30
2018-04-30T02:36:02.548Z,15.30
2018-04-30T02:38:30.074Z,15.20
2018-04-30T02:40:57.580Z,15.00
2018-04-30T02:43:25.878Z,14.80
2018-04-30T02:45:54.141Z,14.70
2018-04-30T02:48:22.449Z,14.60
2018-04-30T02:50:50.727Z,14.60
2018-04-30T02:53:19.026Z,14.50
2018-04-30T02:55:47.295Z,14.40
2018-04-30T02:58:14.835Z,14.40
2018-04-30T03:00:43.115Z,14.30
2018-04-30T03:03:10.645Z,14.30
2018-04-30T03:05:38.953Z,14.10
2018-04-30T03:08:06.452Z,14.10
2018-04-30T03:10:33.974Z,14.00
2018-04-30T03:13:02.244Z,14.10
2018-04-30T03:15:29.771Z,14.00
2018-04-30T03:17:57.289Z,13.90
2018-04-30T03:20:24.828Z,14.00
2018-04-30T03:22:52.336Z,13.90
2018-04-30T03:25:19.875Z,13.90
2018-04-30T03:27:47.380Z,13.80
2018-04-30T03:30:15.670Z,13.80
2018-04-30T03:32:43.176Z,13.80
2018-04-30T03:35:10.693Z,13.70
2018-04-30T03:37:38.196Z,13.70
2018-04-30T03:40:06.503Z,13.50
2018-04-30T03:42:34.020Z,13.50
2018-04-30T03:45:01.550Z,13.40
2018-04-30T03:47:29.074Z,13.20
2018-04-30T03:49:56.603Z,13.10
2018-04-30T03:52:24.121Z,13.00
2018-04-30T03:54:51.642Z,12.90
2018-04-30T03:57:19.142Z,12.80
2018-04-30T03:59:46.676Z,12.70
2018-04-30T04:02:26.217Z,12.60
2018-04-30T04:05:06.523Z,12.40
2018-04-30T04:07:34.027Z,12.40
2018-04-30T04:10:01.558Z,12.20
2018-04-30T04:12:29.057Z,12.10
2018-04-30T04:14:56.619Z,12.00
2018-04-30T04:17:24.117Z,12.00
2018-04-30T04:19:51.635Z,11.90
2018-04-30T04:22:20.094Z,11.90
2018-04-30T04:24:48.421Z,11.70
2018-04-30T04:27:15.935Z,11.70
2018-04-30T04:29:43.490Z,11.70
2018-04-30T04:32:11.011Z,11.70
2018-04-30T04:34:39.300Z,11.60
2018-04-30T04:37:07.568Z,11.60
2018-04-30T04:39:35.088Z,11.60
2018-04-30T04:42:02.672Z,11.50
2018-04-30T04:44:30.237Z,11.50
2018-04-30T04:46:57.836Z,11.50
2018-04-30T04:49:25.355Z,11.40
2018-04-30T04:51:53.765Z,11.50
2018-04-30T04:54:21.268Z,11.50
2018-04-30T04:56:48.802Z,11.60
2018-04-30T04:59:16.404Z,11.60
2018-04-30T05:01:44.729Z,11.70
2018-04-30T05:04:12.232Z,11.70
2018-04-30T05:06:40.529Z,11.70
2018-04-30T05:09:08.048Z,11.70
2018-04-30T05:11:35.597Z,11.70
2018-04-30T05:14:03.153Z,11.70
2018-04-30T05:16:30.721Z,11.70
2018-04-30T05:18:58.227Z,11.70
2018-04-30T05:21:25.745Z,11.70
2018-04-30T05:23:54.022Z,11.90
2018-04-30T05:26:22.317Z,11.90
2018-04-30T05:28:50.587Z,11.90
2018-04-30T05:31:18.109Z,11.90
2018-04-30T05:33:45.689Z,11.90
2018-04-30T05:36:13.634Z,12.00
2018-04-30T05:38:42.146Z,12.10
2018-04-30T05:41:09.665Z,12.10
2018-04-30T05:43:37.167Z,12.10
2018-04-30T05:46:05.466Z,12.20
2018-04-30T05:48:33.738Z,12.30
2018-04-30T05:51:02.031Z,12.40
2018-04-30T05:53:31.033Z,12.40
2018-04-30T05:55:58.553Z,12.40
2018-04-30T05:58:26.066Z,12.50
2018-04-30T06:00:53.621Z,12.50
2018-04-30T06:03:21.116Z,12.60
2018-04-30T06:05:48.636Z,12.60
2018-04-30T06:08:16.151Z,12.60
2018-04-30T06:10:43.680Z,12.60
2018-04-30T06:13:11.212Z,12.70
2018-04-30T06:15:39.496Z,12.70
2018-04-30T06:18:06.988Z,12.70
2018-04-30T06:20:34.509Z,12.80
2018-04-30T06:23:02.013Z,12.90
2018-04-30T06:25:30.302Z,12.80
2018-04-30T06:27:58.597Z,13.00
2018-04-30T06:30:26.868Z,13.00
2018-04-30T06:32:54.409Z,12.90
2018-04-30T06:35:21.916Z,13.20
2018-04-30T06:37:49.459Z,13.30
2018-04-30T06:40:16.994Z,13.50
2018-04-30T06:42:44.517Z,13.70
2018-04-30T06:45:12.031Z,13.80
2018-04-30T06:47:39.567Z,13.90
2018-04-30T06:50:07.068Z,14.10
2018-04-30T06:52:34.589Z,14.50
2018-04-30T06:55:02.104Z,14.80
2018-04-30T06:57:30.389Z,14.70
2018-04-30T06:59:58.681Z,15.00
2018-04-30T07:02:26.998Z,15.10
2018-04-30T07:04:54.496Z,15.00
2018-04-30T07:07:22.012Z,15.20
2018-04-30T07:09:49.541Z,15.30
2018-04-30T07:12:17.072Z,15.40
2018-04-30T07:14:44.564Z,15.50
2018-04-30T07:17:12.081Z,15.30
2018-04-30T07:19:39.577Z,15.60
2018-04-30T07:22:07.098Z,15.70
2018-04-30T07:24:34.612Z,15.50
2018-04-30T07:27:02.905Z,16.10
2018-04-30T07:29:31.183Z,16.10
2018-04-30T07:31:59.493Z,16.10
2018-04-30T07:34:27.011Z,16.00
2018-04-30T07:36:54.538Z,16.00
2018-04-30T07:39:22.039Z,15.90
2018-04-30T07:41:49.561Z,16.10
2018-04-30T07:44:17.845Z,15.90
2018-04-30T07:46:46.140Z,15.90
2018-04-30T07:49:14.463Z,16.20
2018-04-30T07:51:42.721Z,16.20
2018-04-30T07:54:11.012Z,16.50
2018-04-30T07:56:39.300Z,16.20
2018-04-30T07:59:07.565Z,16.20
2018-04-30T08:01:35.088Z,16.20
2018-04-30T08:04:02.607Z,16.20
2018-04-30T08:06:30.109Z,16.10
2018-04-30T08:08:58.408Z,16.40
2018-04-30T08:11:25.922Z,16.40
2018-04-30T08:13:53.455Z,16.70
2018-04-30T08:16:20.949Z,16.80
2018-04-30T08:18:48.487Z,17.00
2018-04-30T08:21:16.003Z,17.10
2018-04-30T08:23:43.528Z,16.90
2018-04-30T08:26:11.807Z,17.10
2018-04-30T08:28:40.093Z,17.10
2018-04-30T08:31:08.365Z,17.30
2018-04-30T08:33:35.985Z,17.30
2018-04-30T08:36:03.480Z,17.40
2018-04-30T08:38:31.008Z,17.70
2018-04-30T08:40:59.271Z,17.60
2018-04-30T08:43:26.805Z,17.60
2018-04-30T08:45:54.308Z,17.80
2018-04-30T08:48:21.834Z,17.70
2018-04-30T08:50:49.351Z,17.80
2018-04-30T08:53:16.896Z,17.90
2018-04-30T08:55:44.402Z,18.00
2018-04-30T08:58:11.925Z,18.30
2018-04-30T09:00:39.491Z,18.10
2018-04-30T09:03:06.957Z,18.00
2018-04-30T09:05:34.458Z,17.90
2018-04-30T09:08:01.993Z,18.00
2018-04-30T09:10:29.490Z,18.10
2018-04-30T09:12:57.013Z,18.30
2018-04-30T09:15:25.276Z,18.10
2018-04-30T09:17:52.801Z,18.10
2018-04-30T09:20:20.319Z,18.20
2018-04-30T09:22:47.869Z,18.10
2018-04-30T09:25:15.383Z,18.50
2018-04-30T09:27:43.679Z,18.60
2018-04-30T09:30:11.957Z,18.90
2018-04-30T09:32:39.480Z,18.80
2018-04-30T09:35:07.024Z,18.60
2018-04-30T09:37:35.322Z,18.80
2018-04-30T09:40:02.842Z,18.80
2018-04-30T09:42:30.346Z,18.90
2018-04-30T09:44:58.634Z,18.50
2018-04-30T09:47:26.902Z,18.80
2018-04-30T09:49:54.427Z,18.80
2018-04-30T09:52:21.938Z,18.90
2018-04-30T09:54:49.462Z,18.90
2018-04-30T09:57:16.969Z,19.20
2018-04-30T09:59:44.488Z,19.30
2018-04-30T10:02:12.757Z,19.20
2018-04-30T10:04:40.367Z,19.20
2018-04-30T10:07:07.870Z,19.50
2018-04-30T10:09:35.412Z,19.60
2018-04-30T10:12:02.934Z,19.60
2018-04-30T10:14:30.462Z,19.40
2018-04-30T10:16:57.998Z,19.30
2018-04-30T10:19:26.596Z,19.30
2018-04-30T10:21:55.149Z,19.30
2018-04-30T10:24:23.015Z,19.30
2018-04-30T10:26:50.774Z,19.40
2018-04-30T10:29:18.746Z,19.30
2018-04-30T10:31:47.591Z,19.60
2018-04-30T10:34:15.565Z,20.10
2018-04-30T10:36:44.310Z,20.10
2018-04-30T10:39:13.523Z,19.90
2018-04-30T10:41:41.267Z,19.90
2018-04-30T10:44:08.814Z,20.00
2018-04-30T10:46:36.319Z,20.10
2018-04-30T10:49:03.849Z,20.10
2018-04-30T10:51:31.377Z,20.20
2018-04-30T10:53:58.904Z,19.90
2018-04-30T10:56:26.416Z,19.90
2018-04-30T10:58:53.954Z,19.80
2018-04-30T11:01:21.461Z,20.00
2018-04-30T11:03:48.998Z,20.00
2018-04-30T11:06:16.511Z,20.20
2018-04-30T11:08:44.796Z,20.40
2018-04-30T11:11:13.066Z,20.40
2018-04-30T11:13:40.597Z,20.40
2018-04-30T11:16:08.100Z,20.40
2018-04-30T11:18:35.606Z,20.20
2018-04-30T11:21:03.896Z,20.30
2018-04-30T11:23:32.179Z,20.30
2018-04-30T11:26:00.484Z,20.50
2018-04-30T11:28:27.992Z,20.50
2018-04-30T11:30:55.520Z,20.60
2018-04-30T11:33:23.798Z,20.50
2018-04-30T11:35:52.123Z,20.30
2018-04-30T11:38:19.636Z,20.30
2018-04-30T11:40:47.174Z,20.30
2018-04-30T11:43:14.681Z,20.20
2018-04-30T11:45:42.216Z,20.40
2018-04-30T11:48:09.723Z,20.60
2018-04-30T11:50:37.292Z,20.70
2018-04-30T11:53:04.801Z,20.50
2018-04-30T11:55:32.380Z,20.70
2018-04-30T11:57:59.889Z,20.70
2018-04-30T12:00:27.441Z,20.60
2018-04-30T12:02:55.026Z,20.80
2018-04-30T12:05:22.554Z,20.70
2018-04-30T12:07:50.069Z,20.20
2018-04-30T12:10:17.616Z,20.60
2018-04-30T12:12:45.375Z,20.80
2018-04-30T12:15:13.756Z,20.80
2018-04-30T12:17:42.385Z,21.00
2018-04-30T12:20:10.282Z,21.00
2018-04-30T12:22:37.884Z,21.00
2018-04-30T12:25:05.430Z,20.70
2018-04-30T12:27:32.952Z,20.60
2018-04-30T12:30:01.252Z,20.80
2018-04-30T12:32:28.786Z,20.70
2018-04-30T12:34:56.344Z,20.90
2018-04-30T12:37:23.867Z,20.80
2018-04-30T12:39:51.407Z,21.00
2018-04-30T12:42:18.967Z,21.10
2018-04-30T12:44:46.505Z,20.90
2018-04-30T12:47:14.035Z,20.90
2018-04-30T12:49:42.412Z,21.00
2018-04-30T12:52:09.908Z,21.00
2018-04-30T12:54:38.190Z,20.90
2018-04-30T12:57:05.716Z,20.90
2018-04-30T12:59:33.270Z,20.80
2018-04-30T13:02:00.820Z,20.90
2018-04-30T13:04:28.338Z,20.90
2018-04-30T13:06:55.880Z,20.80
2018-04-30T13:09:23.422Z,20.70
2018-04-30T13:11:51.729Z,21.00
2018-04-30T13:14:19.263Z,21.00
2018-04-30T13:16:47.663Z,21.20
2018-04-30T13:19:15.994Z,21.30
2018-04-30T13:21:43.518Z,21.30
2018-04-30T13:24:11.014Z,21.00
2018-04-30T13:26:39.301Z,21.20
2018-04-30T13:29:07.568Z,21.30
2018-04-30T13:31:35.100Z,21.20
2018-04-30T13:34:02.610Z,21.40
2018-04-30T13:36:30.143Z,20.90
2018-04-30T13:38:57.664Z,21.10
2018-04-30T13:41:25.188Z,21.40
2018-04-30T13:43:52.697Z,20.90
2018-04-30T13:46:20.223Z,20.30
2018-04-30T13:48:47.728Z,20.50
2018-04-30T13:51:15.270Z,20.60
2018-04-30T13:53:42.768Z,20.80
2018-04-30T13:56:10.303Z,20.70
2018-04-30T13:58:37.951Z,20.90
2018-04-30T14:01:05.516Z,21.10
2018-04-30T14:03:33.050Z,21.00
2018-04-30T14:06:00.607Z,20.70
2018-04-30T14:08:28.137Z,20.60
2018-04-30T14:10:56.437Z,20.90
2018-04-30T14:13:24.715Z,20.90
2018-04-30T14:15:53.074Z,21.00
2018-04-30T14:18:20.531Z,21.00
2018-04-30T14:20:48.055Z,21.00
2018-04-30T14:23:16.335Z,21.10
2018-04-30T14:25:43.849Z,21.10
2018-04-30T14:28:11.384Z,21.20
2018-04-30T14:30:39.656Z,21.20
2018-04-30T14:33:07.186Z,21.10
2018-04-30T14:35:34.707Z,21.10
2018-04-30T14:38:02.238Z,21.10
2018-04-30T14:40:29.751Z,21.30
2018-04-30T14:42:58.049Z,20.90
2018-04-30T14:45:25.579Z,21.00
2018-04-30T14:47:53.126Z,20.90
2018-04-30T14:50:20.641Z,20.50
2018-04-30T14:52:48.179Z,20.40
2018-04-30T14:55:15.677Z,20.70
2018-04-30T14:57:43.205Z,20.80
2018-04-30T15:00:10.723Z,20.80
2018-04-30T15:02:38.255Z,21.00
2018-04-30T15:05:05.765Z,21.00
2018-04-30T15:07:33.490Z,21.10
2018-04-30T15:10:01.010Z,21.00
2018-04-30T15:12:28.553Z,21.30
2018-04-30T15:14:56.066Z,21.20
2018-04-30T15:17:23.598Z,21.10
2018-04-30T15:19:51.101Z,20.90
2018-04-30T15:22:18.641Z,21.30
2018-04-30T15:24:46.170Z,21.10
2018-04-30T15:27:14.460Z,20.80
2018-04-30T15:29:42.728Z,20.50
2018-04-30T15:32:10.274Z,20.50
2018-04-30T15:34:37.780Z,20.30
2018-04-30T15:37:05.297Z,20.20
2018-04-30T15:39:32.805Z,20.30
2018-04-30T15:42:00.386Z,20.00
2018-04-30T15:44:27.860Z,19.70
2018-04-30T15:46:55.390Z,19.80
2018-04-30T15:49:22.913Z,19.50
2018-04-30T15:51:51.218Z,20.00
2018-04-30T15:54:18.714Z,20.00
2018-04-30T15:56:46.234Z,19.90
2018-04-30T15:59:13.761Z,20.10
2018-04-30T16:01:41.268Z,20.30
2018-04-30T16:04:08.794Z,20.40
2018-04-30T16:06:36.292Z,20.40
2018-04-30T16:09:03.833Z,20.40
2018-04-30T16:11:31.342Z,20.50
2018-04-30T16:13:58.885Z,20.60
2018-04-30T16:16:26.407Z,20.50
2018-04-30T16:18:53.933Z,20.40
2018-04-30T16:21:21.440Z,20.50
2018-04-30T16:23:48.984Z,20.60
2018-04-30T16:26:16.503Z,20.30
2018-04-30T16:28:45.565Z,20.00
2018-04-30T16:31:13.065Z,20.00
2018-04-30T16:33:40.590Z,19.80
2018-04-30T16:36:08.122Z,19.90
2018-04-30T16:38:36.418Z,19.70
2018-04-30T16:41:03.934Z,19.60
2018-04-30T16:43:31.461Z,19.70
2018-04-30T16:45:59.729Z,19.50
2018-04-30T16:48:27.253Z,19.50
2018-04-30T16:50:54.760Z,19.40
2018-04-30T16:53:22.289Z,19.40
2018-04-30T16:55:49.785Z,19.30
2018-04-30T16:58:17.309Z,19.30
2018-04-30T17:00:45.586Z,19.20
2018-04-30T17:03:13.889Z,19.10
2018-04-30T17:05:41.396Z,19.10
2018-04-30T17:08:09.013Z,19.20
2018-04-30T17:10:36.557Z,18.90
2018-04-30T17:13:04.078Z,18.60
2018-04-30T17:15:32.350Z,18.40
2018-04-30T17:18:00.642Z,18.30
2018-04-30T17:20:28.913Z,18.10
2018-04-30T17:22:56.441Z,18.10
2018-04-30T17:25:23.945Z,18.20
2018-04-30T17:27:51.451Z,18.30
2018-04-30T17:30:19.743Z,17.70
2018-04-30T17:32:48.030Z,17.30
2018-04-30T17:35:16.325Z,17.20
2018-04-30T17:37:44.603Z,17.10
2018-04-30T17:40:12.907Z,16.90
2018-04-30T17:42:40.421Z,16.80
2018-04-30T17:45:07.957Z,16.80
2018-04-30T17:47:35.456Z,16.80
2018-04-30T17:50:02.988Z,16.70
2018-04-30T17:52:30.500Z,16.50
2018-04-30T17:54:58.045Z,16.30
2018-04-30T17:57:25.547Z,16.40
2018-04-30T17:59:53.159Z,16.40
2018-04-30T18:02:20.604Z,16.20
2018-04-30T18:04:48.121Z,16.10
2018-04-30T18:07:15.628Z,16.00
2018-04-30T18:09:43.154Z,16.20
2018-04-30T18:12:11.420Z,16.20
2018-04-30T18:14:38.951Z,16.20
2018-04-30T18:17:06.465Z,16.20
2018-04-30T18:19:33.988Z,16.00
2018-04-30T18:22:01.493Z,15.90
2018-04-30T18:24:29.031Z,15.90
2018-04-30T18:26:56.695Z,16.00
2018-04-30T18:29:24.079Z,16.00
2018-04-30T18:31:51.945Z,15.90
2018-04-30T18:34:19.475Z,15.80
2018-04-30T18:36:46.989Z,15.60
2018-04-30T18:39:14.508Z,15.60
2018-04-30T18:41:42.012Z,15.60
2018-04-30T18:44:10.323Z,15.60
2018-04-30T18:46:37.837Z,15.60
2018-04-30T18:49:05.372Z,15.50
2018-04-30T18:51:32.938Z,15.40
2018-04-30T18:54:00.475Z,15.40
2018-04-30T18:56:27.972Z,15.50
2018-04-30T18:58:55.490Z,15.40
2018-04-30T19:01:23.014Z,15.40
2018-04-30T19:03:50.521Z,15.30
2018-04-30T19:06:18.043Z,15.30
2018-04-30T19:08:46.310Z,15.40
2018-04-30T19:11:13.835Z,15.30
2018-04-30T19:13:41.332Z,15.20
2018-04-30T19:16:09.637Z,15.20
2018-04-30T19:18:37.155Z,15.20
2018-04-30T19:21:04.676Z,15.10
2018-04-30T19:23:32.197Z,15.20
2018-04-30T19:25:59.728Z,15.10
2018-04-30T19:28:27.230Z,15.10
2018-04-30T19:30:54.969Z,15.10
2018-04-30T19:33:22.477Z,15.10
2018-04-30T19:35:50.021Z,15.10
2018-04-30T19:38:17.524Z,15.00
2018-04-30T19:40:45.053Z,15.00
2018-04-30T19:43:12.559Z,14.90
2018-04-30T19:45:40.086Z,14.90
2018-04-30T19:48:07.606Z,14.90
2018-04-30T19:50:35.134Z,14.90
2018-04-30T19:53:02.706Z,14.80
2018-04-30T19:55:30.195Z,14.80
2018-04-30T19:57:57.696Z,14.70
2018-04-30T20:00:25.588Z,14.70
2018-04-30T20:02:53.086Z,14.70
2018-04-30T20:05:20.620Z,14.60
2018-04-30T20:07:48.120Z,14.60
2018-04-30T20:10:15.657Z,14.50
2018-04-30T20:12:43.168Z,14.50
2018-04-30T20:15:10.701Z,14.50
2018-04-30T20:17:38.197Z,14.40
2018-04-30T20:20:05.727Z,14.40
2018-04-30T20:22:34.011Z,14.30
2018-04-30T20:25:02.286Z,14.30
2018-04-30T20:27:29.817Z,14.30
2018-04-30T20:29:57.331Z,14.30
2018-04-30T20:32:25.033Z,14.30
2018-04-30T20:34:53.332Z,14.30
2018-04-30T20:37:20.862Z,14.30
2018-04-30T20:39:48.378Z,14.30
2018-04-30T20:42:15.956Z,14.30
2018-04-30T20:44:43.478Z,14.40
2018-04-30T20:47:11.040Z,14.40
2018-04-30T20:49:38.562Z,14.40
2018-04-30T20:52:06.084Z,14.30
2018-04-30T20:54:33.592Z,14.40
2018-04-30T20:57:01.881Z,14.40
2018-04-30T20:59:30.154Z,14.30
2018-04-30T21:01:57.681Z,14.30
2018-04-30T21:04:25.180Z,14.20
2018-04-30T21:06:52.710Z,14.10
2018-04-30T21:09:20.230Z,14.10
2018-04-30T21:11:47.758Z,14.10
2018-04-30T21:14:15.317Z,14.10
2018-04-30T21:16:42.872Z,14.00
2018-04-30T21:19:10.412Z,14.00
2018-04-30T21:21:37.952Z,14.00
2018-04-30T21:24:05.457Z,14.00
2018-04-30T21:26:33.041Z,14.00
2018-04-30T21:29:00.514Z,14.00
2018-04-30T21:31:28.819Z,14.00
2018-04-30T21:33:57.097Z,13.90
2018-04-30T21:36:25.393Z,14.00
2018-04-30T21:38:53.669Z,14.00
2018-04-30T21:41:21.970Z,14.00
2018-04-30T21:43:50.265Z,14.00
2018-04-30T21:46:18.556Z,14.00
2018-04-30T21:48:46.835Z,14.00
2018-04-30T21:51:15.298Z,14.00
2018-04-30T21:53:42.825Z,13.90
2018-04-30T21:56:10.357Z,13.80
2018-04-30T21:58:37.856Z,13.80
2018-04-30T22:01:05.386Z,13.80
2018-04-30T22:03:32.906Z,13.80
2018-04-30T22:06:00.407Z,13.80
2018-04-30T22:08:27.929Z,13.80
2018-04-30T22:10:56.196Z,13.80
2018-04-30T22:13:23.736Z,13.80
2018-04-30T22:15:51.255Z,13.80
2018-04-30T22:18:19.553Z,13.90
2018-04-30T22:20:47.867Z,13.80
2018-04-30T22:23:15.402Z,13.80
2018-04-30T22:25:42.904Z,13.80
2018-04-30T22:28:10.436Z,13.80
2018-04-30T22:30:38.047Z,13.80
2018-04-30T22:33:05.565Z,13.70
2018-04-30T22:35:33.826Z,13.70
2018-04-30T22:38:01.353Z,13.70
2018-04-30T22:40:29.620Z,13.70
2018-04-30T22:42:57.159Z,13.60
2018-04-30T22:45:24.657Z,13.60
2018-04-30T22:47:52.185Z,13.70
2018-04-30T22:50:19.705Z,13.70
2018-04-30T22:52:47.252Z,13.70
2018-04-30T22:55:14.760Z,13.70
2018-04-30T22:57:42.432Z,13.70
2018-04-30T23:00:09.954Z,13.60
2018-04-30T23:02:37.499Z,13.50
2018-04-30T23:05:05.763Z,13.50
2018-04-30T23:07:33.343Z,13.50
2018-04-30T23:10:00.854Z,13.50
2018-04-30T23:12:28.374Z,13.50
2018-04-30T23:14:55.914Z,13.50
2018-04-30T23:17:23.444Z,13.40
2018-04-30T23:19:51.735Z,13.40
2018-04-30T23:22:20.034Z,13.30
2018-04-30T23:24:47.532Z,13.30
2018-04-30T23:27:15.053Z,13.40
2018-04-30T23:29:43.322Z,13.30
2018-04-30T23:32:10.882Z,13.30
2018-04-30T23:34:38.390Z,13.30
2018-04-30T23:37:06.676Z,13.20
2018-04-30T23:39:34.970Z,13.20
2018-04-30T23:42:03.232Z,13.20
2018-04-30T23:44:30.752Z,13.20
2018-04-30T23:46:58.253Z,13.10
2018-04-30T23:49:25.790Z,13.10
2018-04-30T23:51:53.293Z,13.10
2018-04-30T23:54:20.812Z,13.00
2018-04-30T23:56:49.080Z,12.90
2018-04-30T23:59:16.988Z,12.90
